sensor_id;sensor_type;location;lat;lon;timestamp;P1;durP1;ratioP1;P2;durP2;ratioP2
7703;SDS011;3894;49.700;10.770;2023-09-12T00:00:53;9.73;;;5.10;;
7703;SDS011;3894;49.700;10.770;2023-09-12T00:03:20;9.25;;;4.60;;
7703;SDS011;3894;49.700;10.770;2023-09-12T00:05:51;9.52;;;4.90;;
7703;SDS011;3894;49.700;10.770;2023-09-12T00:08:21;8.20;;;3.97;;
7703;SDS011;3894;49.700;10.770;2023-09-12T00:10:58;9.82;;;4.28;;
7703;SDS011;3894;49.700;10.770;2023-09-12T00:13:28;10.50;;;5.05;;
7703;SDS011;3894;49.700;10.770;2023-09-12T00:15:54;9.35;;;5.50;;
7703;SDS011;3894;49.700;10.770;2023-09-12T00:18:20;10.95;;;5.13;;
7703;SDS011;3894;49.700;10.770;2023-09-12T00:20:45;10.80;;;5.55;;
7703;SDS011;3894;49.700;10.770;2023-09-12T00:23:11;10.40;;;5.35;;
7703;SDS011;3894;49.700;10.770;2023-09-12T00:25:37;8.20;;;4.53;;
7703;SDS011;3894;49.700;10.770;2023-09-12T00:28:02;9.10;;;4.72;;
7703;SDS011;3894;49.700;10.770;2023-09-12T00:30:28;9.27;;;4.82;;
7703;SDS011;3894;49.700;10.770;2023-09-12T00:32:55;9.32;;;4.93;;
7703;SDS011;3894;49.700;10.770;2023-09-12T00:35:20;9.65;;;4.35;;
7703;SDS011;3894;49.700;10.770;2023-09-12T00:37:46;10.95;;;4.97;;
7703;SDS011;3894;49.700;10.770;2023-09-12T00:40:11;9.20;;;5.40;;
7703;SDS011;3894;49.700;10.770;2023-09-12T00:42:37;9.45;;;5.18;;
7703;SDS011;3894;49.700;10.770;2023-09-12T00:45:02;11.18;;;5.45;;
7703;SDS011;3894;49.700;10.770;2023-09-12T00:47:28;11.05;;;5.70;;
7703;SDS011;3894;49.700;10.770;2023-09-12T00:49:55;13.20;;;5.65;;
7703;SDS011;3894;49.700;10.770;2023-09-12T00:52:21;11.00;;;5.05;;
7703;SDS011;3894;49.700;10.770;2023-09-12T00:54:50;11.40;;;6.05;;
7703;SDS011;3894;49.700;10.770;2023-09-12T00:57:16;8.90;;;4.88;;
7703;SDS011;3894;49.700;10.770;2023-09-12T00:59:42;9.90;;;5.15;;
7703;SDS011;3894;49.700;10.770;2023-09-12T01:02:08;9.93;;;5.95;;
7703;SDS011;3894;49.700;10.770;2023-09-12T01:04:34;9.93;;;5.07;;
7703;SDS011;3894;49.700;10.770;2023-09-12T01:07:02;10.25;;;5.10;;
7703;SDS011;3894;49.700;10.770;2023-09-12T01:09:29;9.65;;;5.05;;
7703;SDS011;3894;49.700;10.770;2023-09-12T01:11:55;12.02;;;5.40;;
7703;SDS011;3894;49.700;10.770;2023-09-12T01:14:21;12.70;;;5.35;;
7703;SDS011;3894;49.700;10.770;2023-09-12T01:16:47;12.30;;;5.07;;
7703;SDS011;3894;49.700;10.770;2023-09-12T01:19:12;9.20;;;4.90;;
7703;SDS011;3894;49.700;10.770;2023-09-12T01:21:52;10.80;;;5.20;;
7703;SDS011;3894;49.700;10.770;2023-09-12T01:30:00;9.18;;;4.78;;
7703;SDS011;3894;49.700;10.770;2023-09-12T01:32:29;10.68;;;4.30;;
7703;SDS011;3894;49.700;10.770;2023-09-12T01:34:56;10.60;;;5.20;;
7703;SDS011;3894;49.700;10.770;2023-09-12T01:37:21;9.73;;;5.10;;
7703;SDS011;3894;49.700;10.770;2023-09-12T01:39:47;9.65;;;5.18;;
7703;SDS011;3894;49.700;10.770;2023-09-12T01:42:17;10.88;;;5.30;;
7703;SDS011;3894;49.700;10.770;2023-09-12T01:44:45;9.95;;;4.57;;
7703;SDS011;3894;49.700;10.770;2023-09-12T01:47:14;10.25;;;5.38;;
7703;SDS011;3894;49.700;10.770;2023-09-12T01:49:42;9.05;;;4.78;;
7703;SDS011;3894;49.700;10.770;2023-09-12T01:52:10;13.25;;;5.47;;
7703;SDS011;3894;49.700;10.770;2023-09-12T01:54:36;13.15;;;5.72;;
7703;SDS011;3894;49.700;10.770;2023-09-12T01:57:03;9.88;;;5.93;;
7703;SDS011;3894;49.700;10.770;2023-09-12T01:59:29;8.73;;;5.00;;
7703;SDS011;3894;49.700;10.770;2023-09-12T02:01:55;10.18;;;5.05;;
7703;SDS011;3894;49.700;10.770;2023-09-12T02:04:20;11.48;;;4.97;;
7703;SDS011;3894;49.700;10.770;2023-09-12T02:06:46;10.25;;;5.32;;
7703;SDS011;3894;49.700;10.770;2023-09-12T02:09:11;9.88;;;5.43;;
7703;SDS011;3894;49.700;10.770;2023-09-12T02:11:37;12.40;;;6.45;;
7703;SDS011;3894;49.700;10.770;2023-09-12T02:14:03;8.95;;;5.65;;
7703;SDS011;3894;49.700;10.770;2023-09-12T02:16:31;13.15;;;6.72;;
7703;SDS011;3894;49.700;10.770;2023-09-12T02:18:57;11.50;;;5.65;;
7703;SDS011;3894;49.700;10.770;2023-09-12T02:21:22;9.45;;;5.28;;
7703;SDS011;3894;49.700;10.770;2023-09-12T02:23:48;10.40;;;5.30;;
7703;SDS011;3894;49.700;10.770;2023-09-12T02:26:13;9.82;;;5.03;;
7703;SDS011;3894;49.700;10.770;2023-09-12T02:28:39;9.70;;;5.18;;
7703;SDS011;3894;49.700;10.770;2023-09-12T02:31:11;8.80;;;4.80;;
7703;SDS011;3894;49.700;10.770;2023-09-12T02:33:40;10.13;;;5.18;;
7703;SDS011;3894;49.700;10.770;2023-09-12T02:36:05;8.93;;;5.10;;
7703;SDS011;3894;49.700;10.770;2023-09-12T02:38:32;10.23;;;4.82;;
7703;SDS011;3894;49.700;10.770;2023-09-12T02:40:57;11.52;;;4.70;;
7703;SDS011;3894;49.700;10.770;2023-09-12T02:43:23;11.32;;;5.03;;
7703;SDS011;3894;49.700;10.770;2023-09-12T02:45:49;8.38;;;4.38;;
7703;SDS011;3894;49.700;10.770;2023-09-12T02:48:14;10.98;;;5.00;;
7703;SDS011;3894;49.700;10.770;2023-09-12T02:50:40;10.40;;;5.72;;
7703;SDS011;3894;49.700;10.770;2023-09-12T02:53:06;10.75;;;5.70;;
7703;SDS011;3894;49.700;10.770;2023-09-12T02:55:32;10.20;;;5.07;;
7703;SDS011;3894;49.700;10.770;2023-09-12T02:57:57;9.10;;;5.03;;
7703;SDS011;3894;49.700;10.770;2023-09-12T03:00:23;11.00;;;5.22;;
7703;SDS011;3894;49.700;10.770;2023-09-12T03:02:49;11.38;;;5.28;;
7703;SDS011;3894;49.700;10.770;2023-09-12T03:05:14;9.68;;;5.47;;
7703;SDS011;3894;49.700;10.770;2023-09-12T03:07:40;9.32;;;4.30;;
7703;SDS011;3894;49.700;10.770;2023-09-12T03:10:06;8.55;;;4.47;;
7703;SDS011;3894;49.700;10.770;2023-09-12T03:12:31;10.57;;;4.50;;
7703;SDS011;3894;49.700;10.770;2023-09-12T03:14:57;9.82;;;4.50;;
7703;SDS011;3894;49.700;10.770;2023-09-12T03:17:23;9.30;;;4.65;;
7703;SDS011;3894;49.700;10.770;2023-09-12T03:19:48;10.25;;;5.07;;
7703;SDS011;3894;49.700;10.770;2023-09-12T03:22:14;8.55;;;4.50;;
7703;SDS011;3894;49.700;10.770;2023-09-12T03:24:40;11.00;;;5.30;;
7703;SDS011;3894;49.700;10.770;2023-09-12T03:27:05;10.27;;;5.03;;
7703;SDS011;3894;49.700;10.770;2023-09-12T03:29:32;10.77;;;4.95;;
7703;SDS011;3894;49.700;10.770;2023-09-12T03:31:58;11.48;;;6.45;;
7703;SDS011;3894;49.700;10.770;2023-09-12T03:34:24;11.73;;;7.25;;
7703;SDS011;3894;49.700;10.770;2023-09-12T03:36:49;13.38;;;6.32;;
7703;SDS011;3894;49.700;10.770;2023-09-12T03:39:15;14.05;;;7.80;;
7703;SDS011;3894;49.700;10.770;2023-09-12T03:41:41;12.35;;;6.43;;
7703;SDS011;3894;49.700;10.770;2023-09-12T03:44:06;12.25;;;6.95;;
7703;SDS011;3894;49.700;10.770;2023-09-12T03:46:32;13.65;;;7.25;;
7703;SDS011;3894;49.700;10.770;2023-09-12T03:48:58;12.98;;;6.28;;
7703;SDS011;3894;49.700;10.770;2023-09-12T03:51:23;11.30;;;6.25;;
7703;SDS011;3894;49.700;10.770;2023-09-12T03:53:49;10.35;;;5.65;;
7703;SDS011;3894;49.700;10.770;2023-09-12T03:56:15;10.95;;;5.65;;
7703;SDS011;3894;49.700;10.770;2023-09-12T03:58:41;11.90;;;5.93;;
7703;SDS011;3894;49.700;10.770;2023-09-12T04:01:07;11.85;;;6.47;;
7703;SDS011;3894;49.700;10.770;2023-09-12T04:03:32;10.65;;;5.78;;
7703;SDS011;3894;49.700;10.770;2023-09-12T04:05:58;10.40;;;5.05;;
7703;SDS011;3894;49.700;10.770;2023-09-12T04:08:24;10.93;;;5.28;;
7703;SDS011;3894;49.700;10.770;2023-09-12T04:10:49;13.38;;;5.93;;
7703;SDS011;3894;49.700;10.770;2023-09-12T04:13:15;10.40;;;5.22;;
7703;SDS011;3894;49.700;10.770;2023-09-12T04:15:40;11.57;;;5.25;;
7703;SDS011;3894;49.700;10.770;2023-09-12T04:18:06;10.80;;;5.32;;
7703;SDS011;3894;49.700;10.770;2023-09-12T04:20:32;12.45;;;5.25;;
7703;SDS011;3894;49.700;10.770;2023-09-12T04:23:00;11.43;;;5.78;;
7703;SDS011;3894;49.700;10.770;2023-09-12T04:25:26;11.25;;;5.60;;
7703;SDS011;3894;49.700;10.770;2023-09-12T04:27:52;9.90;;;5.30;;
7703;SDS011;3894;49.700;10.770;2023-09-12T04:30:17;12.60;;;5.00;;
7703;SDS011;3894;49.700;10.770;2023-09-12T04:32:43;9.38;;;4.63;;
7703;SDS011;3894;49.700;10.770;2023-09-12T04:35:09;10.98;;;6.03;;
7703;SDS011;3894;49.700;10.770;2023-09-12T04:37:35;9.63;;;5.18;;
7703;SDS011;3894;49.700;10.770;2023-09-12T04:40:00;10.65;;;4.80;;
7703;SDS011;3894;49.700;10.770;2023-09-12T04:42:26;10.00;;;4.93;;
7703;SDS011;3894;49.700;10.770;2023-09-12T04:44:51;10.35;;;5.00;;
7703;SDS011;3894;49.700;10.770;2023-09-12T04:47:17;9.63;;;5.00;;
7703;SDS011;3894;49.700;10.770;2023-09-12T04:49:43;12.05;;;5.35;;
7703;SDS011;3894;49.700;10.770;2023-09-12T04:52:09;11.38;;;5.30;;
7703;SDS011;3894;49.700;10.770;2023-09-12T04:54:34;10.55;;;5.30;;
7703;SDS011;3894;49.700;10.770;2023-09-12T04:57:00;12.02;;;5.32;;
7703;SDS011;3894;49.700;10.770;2023-09-12T04:59:26;10.13;;;5.13;;
7703;SDS011;3894;49.700;10.770;2023-09-12T05:01:52;10.90;;;6.45;;
7703;SDS011;3894;49.700;10.770;2023-09-12T05:04:17;12.40;;;5.43;;
7703;SDS011;3894;49.700;10.770;2023-09-12T05:06:43;9.73;;;5.32;;
7703;SDS011;3894;49.700;10.770;2023-09-12T05:09:08;10.20;;;5.82;;
7703;SDS011;3894;49.700;10.770;2023-09-12T05:11:35;13.13;;;5.97;;
7703;SDS011;3894;49.700;10.770;2023-09-12T05:14:02;12.05;;;6.25;;
7703;SDS011;3894;49.700;10.770;2023-09-12T05:16:29;12.85;;;5.82;;
7703;SDS011;3894;49.700;10.770;2023-09-12T05:18:55;10.32;;;4.85;;
7703;SDS011;3894;49.700;10.770;2023-09-12T05:21:20;12.32;;;5.38;;
7703;SDS011;3894;49.700;10.770;2023-09-12T05:23:46;12.18;;;5.88;;
7703;SDS011;3894;49.700;10.770;2023-09-12T05:26:11;11.50;;;6.43;;
7703;SDS011;3894;49.700;10.770;2023-09-12T05:28:38;11.25;;;5.97;;
7703;SDS011;3894;49.700;10.770;2023-09-12T05:31:04;13.60;;;5.80;;
7703;SDS011;3894;49.700;10.770;2023-09-12T05:33:29;12.38;;;6.38;;
7703;SDS011;3894;49.700;10.770;2023-09-12T05:35:55;10.43;;;4.82;;
7703;SDS011;3894;49.700;10.770;2023-09-12T05:38:21;10.10;;;5.07;;
7703;SDS011;3894;49.700;10.770;2023-09-12T05:40:46;10.80;;;4.93;;
7703;SDS011;3894;49.700;10.770;2023-09-12T05:43:14;9.63;;;5.72;;
7703;SDS011;3894;49.700;10.770;2023-09-12T05:45:40;8.00;;;4.22;;
7703;SDS011;3894;49.700;10.770;2023-09-12T05:48:06;9.18;;;4.68;;
7703;SDS011;3894;49.700;10.770;2023-09-12T05:50:34;10.90;;;5.45;;
7703;SDS011;3894;49.700;10.770;2023-09-12T05:53:01;10.65;;;5.32;;
7703;SDS011;3894;49.700;10.770;2023-09-12T05:55:28;10.70;;;5.18;;
7703;SDS011;3894;49.700;10.770;2023-09-12T05:57:54;10.10;;;5.57;;
7703;SDS011;3894;49.700;10.770;2023-09-12T06:00:19;12.30;;;5.47;;
7703;SDS011;3894;49.700;10.770;2023-09-12T06:02:46;10.32;;;6.10;;
7703;SDS011;3894;49.700;10.770;2023-09-12T06:05:12;15.85;;;6.15;;
7703;SDS011;3894;49.700;10.770;2023-09-12T06:07:38;11.40;;;5.50;;
7703;SDS011;3894;49.700;10.770;2023-09-12T06:10:06;11.32;;;6.00;;
7703;SDS011;3894;49.700;10.770;2023-09-12T06:12:32;12.35;;;6.53;;
7703;SDS011;3894;49.700;10.770;2023-09-12T06:14:58;13.93;;;6.60;;
7703;SDS011;3894;49.700;10.770;2023-09-12T06:17:24;13.45;;;7.78;;
7703;SDS011;3894;49.700;10.770;2023-09-12T06:19:50;13.57;;;6.32;;
7703;SDS011;3894;49.700;10.770;2023-09-12T06:22:16;13.38;;;6.97;;
7703;SDS011;3894;49.700;10.770;2023-09-12T06:24:42;15.82;;;6.68;;
7703;SDS011;3894;49.700;10.770;2023-09-12T06:27:08;12.30;;;6.95;;
7703;SDS011;3894;49.700;10.770;2023-09-12T06:29:35;14.18;;;7.85;;
7703;SDS011;3894;49.700;10.770;2023-09-12T06:32:00;14.52;;;8.43;;
7703;SDS011;3894;49.700;10.770;2023-09-12T06:34:27;14.05;;;7.60;;
7703;SDS011;3894;49.700;10.770;2023-09-12T06:36:52;18.65;;;8.73;;
7703;SDS011;3894;49.700;10.770;2023-09-12T06:39:18;14.95;;;8.25;;
7703;SDS011;3894;49.700;10.770;2023-09-12T06:41:44;15.00;;;7.97;;
7703;SDS011;3894;49.700;10.770;2023-09-12T06:44:09;13.40;;;7.95;;
7703;SDS011;3894;49.700;10.770;2023-09-12T06:46:37;14.80;;;8.20;;
7703;SDS011;3894;49.700;10.770;2023-09-12T06:49:02;14.38;;;7.97;;
7703;SDS011;3894;49.700;10.770;2023-09-12T06:51:28;17.00;;;9.07;;
7703;SDS011;3894;49.700;10.770;2023-09-12T06:53:54;14.15;;;8.43;;
7703;SDS011;3894;49.700;10.770;2023-09-12T06:56:20;14.85;;;8.57;;
7703;SDS011;3894;49.700;10.770;2023-09-12T06:58:46;24.13;;;9.20;;
7703;SDS011;3894;49.700;10.770;2023-09-12T07:01:12;14.55;;;9.20;;
7703;SDS011;3894;49.700;10.770;2023-09-12T07:03:38;14.77;;;9.32;;
7703;SDS011;3894;49.700;10.770;2023-09-12T07:06:03;16.52;;;9.20;;
7703;SDS011;3894;49.700;10.770;2023-09-12T07:08:30;15.55;;;9.93;;
7703;SDS011;3894;49.700;10.770;2023-09-12T07:10:56;14.10;;;8.75;;
7703;SDS011;3894;49.700;10.770;2023-09-12T07:13:22;19.15;;;9.18;;
7703;SDS011;3894;49.700;10.770;2023-09-12T07:15:49;16.00;;;7.97;;
7703;SDS011;3894;49.700;10.770;2023-09-12T07:18:15;14.23;;;8.73;;
7703;SDS011;3894;49.700;10.770;2023-09-12T07:20:41;15.88;;;9.02;;
7703;SDS011;3894;49.700;10.770;2023-09-12T07:23:07;14.98;;;8.93;;
7703;SDS011;3894;49.700;10.770;2023-09-12T07:25:39;16.58;;;9.20;;
7703;SDS011;3894;49.700;10.770;2023-09-12T07:28:06;15.30;;;8.25;;
7703;SDS011;3894;49.700;10.770;2023-09-12T07:30:32;13.00;;;8.88;;
7703;SDS011;3894;49.700;10.770;2023-09-12T07:32:58;12.23;;;8.48;;
7703;SDS011;3894;49.700;10.770;2023-09-12T07:35:23;14.93;;;8.38;;
7703;SDS011;3894;49.700;10.770;2023-09-12T07:37:49;17.90;;;8.48;;
7703;SDS011;3894;49.700;10.770;2023-09-12T07:40:15;17.08;;;8.85;;
7703;SDS011;3894;49.700;10.770;2023-09-12T07:42:41;15.63;;;8.90;;
7703;SDS011;3894;49.700;10.770;2023-09-12T07:45:07;13.38;;;8.55;;
7703;SDS011;3894;49.700;10.770;2023-09-12T07:47:33;14.38;;;8.35;;
7703;SDS011;3894;49.700;10.770;2023-09-12T07:49:59;16.70;;;9.68;;
7703;SDS011;3894;49.700;10.770;2023-09-12T07:52:30;15.43;;;8.52;;
7703;SDS011;3894;49.700;10.770;2023-09-12T07:54:59;13.60;;;8.95;;
7703;SDS011;3894;49.700;10.770;2023-09-12T07:57:25;14.23;;;8.05;;
7703;SDS011;3894;49.700;10.770;2023-09-12T07:59:50;14.38;;;9.18;;
7703;SDS011;3894;49.700;10.770;2023-09-12T08:02:16;15.70;;;8.98;;
7703;SDS011;3894;49.700;10.770;2023-09-12T08:04:41;15.63;;;8.57;;
7703;SDS011;3894;49.700;10.770;2023-09-12T08:07:07;15.55;;;9.02;;
7703;SDS011;3894;49.700;10.770;2023-09-12T08:09:52;13.73;;;8.70;;
7703;SDS011;3894;49.700;10.770;2023-09-12T08:12:19;15.50;;;8.18;;
7703;SDS011;3894;49.700;10.770;2023-09-12T08:14:47;14.75;;;8.20;;
7703;SDS011;3894;49.700;10.770;2023-09-12T08:17:13;13.80;;;8.98;;
7703;SDS011;3894;49.700;10.770;2023-09-12T08:19:39;15.50;;;8.27;;
7703;SDS011;3894;49.700;10.770;2023-09-12T08:22:05;14.38;;;8.25;;
7703;SDS011;3894;49.700;10.770;2023-09-12T08:24:32;15.93;;;8.73;;
7703;SDS011;3894;49.700;10.770;2023-09-12T08:26:59;12.10;;;7.68;;
7703;SDS011;3894;49.700;10.770;2023-09-12T08:29:25;12.77;;;7.70;;
7703;SDS011;3894;49.700;10.770;2023-09-12T08:31:50;13.20;;;7.50;;
7703;SDS011;3894;49.700;10.770;2023-09-12T08:34:18;13.23;;;8.32;;
7703;SDS011;3894;49.700;10.770;2023-09-12T08:36:44;11.55;;;8.30;;
7703;SDS011;3894;49.700;10.770;2023-09-12T08:39:11;14.88;;;9.85;;
7703;SDS011;3894;49.700;10.770;2023-09-12T08:41:39;16.50;;;9.93;;
7703;SDS011;3894;49.700;10.770;2023-09-12T08:44:05;14.48;;;8.55;;
7703;SDS011;3894;49.700;10.770;2023-09-12T08:46:32;14.23;;;8.57;;
7703;SDS011;3894;49.700;10.770;2023-09-12T08:48:57;15.05;;;8.45;;
7703;SDS011;3894;49.700;10.770;2023-09-12T08:51:23;12.82;;;7.43;;
7703;SDS011;3894;49.700;10.770;2023-09-12T08:53:49;13.27;;;8.00;;
7703;SDS011;3894;49.700;10.770;2023-09-12T08:56:16;13.55;;;7.88;;
7703;SDS011;3894;49.700;10.770;2023-09-12T08:58:43;14.85;;;9.20;;
7703;SDS011;3894;49.700;10.770;2023-09-12T09:01:09;11.63;;;7.57;;
7703;SDS011;3894;49.700;10.770;2023-09-12T09:03:41;16.33;;;8.02;;
7703;SDS011;3894;49.700;10.770;2023-09-12T09:06:11;13.38;;;8.05;;
7703;SDS011;3894;49.700;10.770;2023-09-12T09:08:39;13.43;;;7.25;;
7703;SDS011;3894;49.700;10.770;2023-09-12T09:11:05;12.20;;;7.43;;
7703;SDS011;3894;49.700;10.770;2023-09-12T09:13:34;11.98;;;7.15;;
7703;SDS011;3894;49.700;10.770;2023-09-12T09:16:15;12.07;;;7.45;;
7703;SDS011;3894;49.700;10.770;2023-09-12T09:18:53;11.93;;;8.45;;
7703;SDS011;3894;49.700;10.770;2023-09-12T09:21:30;13.60;;;6.85;;
7703;SDS011;3894;49.700;10.770;2023-09-12T09:24:16;14.45;;;7.50;;
7703;SDS011;3894;49.700;10.770;2023-09-12T09:29:14;12.15;;;6.97;;
7703;SDS011;3894;49.700;10.770;2023-09-12T09:31:42;12.65;;;6.68;;
7703;SDS011;3894;49.700;10.770;2023-09-12T09:34:16;13.48;;;7.30;;
7703;SDS011;3894;49.700;10.770;2023-09-12T09:36:50;11.88;;;7.32;;
7703;SDS011;3894;49.700;10.770;2023-09-12T09:39:20;10.88;;;7.07;;
7703;SDS011;3894;49.700;10.770;2023-09-12T09:41:48;10.65;;;6.43;;
7703;SDS011;3894;49.700;10.770;2023-09-12T09:44:15;12.60;;;8.32;;
7703;SDS011;3894;49.700;10.770;2023-09-12T09:46:42;10.48;;;6.65;;
7703;SDS011;3894;49.700;10.770;2023-09-12T09:49:15;13.13;;;7.63;;
7703;SDS011;3894;49.700;10.770;2023-09-12T09:51:43;12.02;;;7.43;;
7703;SDS011;3894;49.700;10.770;2023-09-12T09:54:10;11.77;;;7.47;;
7703;SDS011;3894;49.700;10.770;2023-09-12T09:56:45;11.77;;;7.50;;
7703;SDS011;3894;49.700;10.770;2023-09-12T09:59:15;11.70;;;8.18;;
7703;SDS011;3894;49.700;10.770;2023-09-12T10:01:43;15.43;;;7.13;;
7703;SDS011;3894;49.700;10.770;2023-09-12T10:04:10;12.13;;;6.43;;
7703;SDS011;3894;49.700;10.770;2023-09-12T10:06:36;11.70;;;7.38;;
7703;SDS011;3894;49.700;10.770;2023-09-12T10:09:05;11.52;;;7.07;;
7703;SDS011;3894;49.700;10.770;2023-09-12T10:11:32;11.70;;;6.80;;
7703;SDS011;3894;49.700;10.770;2023-09-12T10:13:59;11.10;;;6.25;;
7703;SDS011;3894;49.700;10.770;2023-09-12T10:16:49;13.32;;;6.80;;
7703;SDS011;3894;49.700;10.770;2023-09-12T10:19:22;11.65;;;6.85;;
7703;SDS011;3894;49.700;10.770;2023-09-12T10:24:24;10.02;;;6.43;;
7703;SDS011;3894;49.700;10.770;2023-09-12T10:26:52;8.57;;;6.05;;
7703;SDS011;3894;49.700;10.770;2023-09-12T10:29:20;10.32;;;6.32;;
7703;SDS011;3894;49.700;10.770;2023-09-12T10:31:47;14.07;;;6.82;;
7703;SDS011;3894;49.700;10.770;2023-09-12T10:34:14;11.25;;;7.00;;
7703;SDS011;3894;49.700;10.770;2023-09-12T10:36:40;13.82;;;6.65;;
7703;SDS011;3894;49.700;10.770;2023-09-12T10:39:07;11.25;;;6.57;;
7703;SDS011;3894;49.700;10.770;2023-09-12T10:41:40;11.65;;;7.93;;
7703;SDS011;3894;49.700;10.770;2023-09-12T10:44:07;12.88;;;6.43;;
7703;SDS011;3894;49.700;10.770;2023-09-12T10:46:41;11.90;;;6.78;;
7703;SDS011;3894;49.700;10.770;2023-09-12T10:49:08;8.85;;;5.45;;
7703;SDS011;3894;49.700;10.770;2023-09-12T10:51:39;11.02;;;6.93;;
7703;SDS011;3894;49.700;10.770;2023-09-12T10:54:06;10.00;;;6.50;;
7703;SDS011;3894;49.700;10.770;2023-09-12T10:56:35;10.02;;;6.63;;
7703;SDS011;3894;49.700;10.770;2023-09-12T11:01:31;12.13;;;6.82;;
7703;SDS011;3894;49.700;10.770;2023-09-12T11:03:57;11.57;;;6.57;;
7703;SDS011;3894;49.700;10.770;2023-09-12T11:06:29;11.80;;;6.57;;
7703;SDS011;3894;49.700;10.770;2023-09-12T11:11:39;10.77;;;6.97;;
7703;SDS011;3894;49.700;10.770;2023-09-12T11:14:10;13.70;;;5.85;;
7703;SDS011;3894;49.700;10.770;2023-09-12T11:16:36;9.88;;;6.28;;
7703;SDS011;3894;49.700;10.770;2023-09-12T11:19:17;11.20;;;6.43;;
7703;SDS011;3894;49.700;10.770;2023-09-12T11:21:46;10.48;;;5.78;;
7703;SDS011;3894;49.700;10.770;2023-09-12T11:24:14;8.63;;;5.55;;
7703;SDS011;3894;49.700;10.770;2023-09-12T11:26:59;12.88;;;6.78;;
7703;SDS011;3894;49.700;10.770;2023-09-12T11:29:37;13.25;;;6.35;;
7703;SDS011;3894;49.700;10.770;2023-09-12T11:32:04;10.43;;;6.15;;
7703;SDS011;3894;49.700;10.770;2023-09-12T11:37:04;11.15;;;6.57;;
7703;SDS011;3894;49.700;10.770;2023-09-12T11:39:31;10.15;;;6.05;;
7703;SDS011;3894;49.700;10.770;2023-09-12T11:41:58;10.23;;;6.15;;
7703;SDS011;3894;49.700;10.770;2023-09-12T11:46:52;10.80;;;5.68;;
7703;SDS011;3894;49.700;10.770;2023-09-12T11:49:18;9.73;;;5.70;;
7703;SDS011;3894;49.700;10.770;2023-09-12T11:51:51;9.45;;;6.28;;
7703;SDS011;3894;49.700;10.770;2023-09-12T11:54:18;12.32;;;6.55;;
7703;SDS011;3894;49.700;10.770;2023-09-12T11:56:54;12.63;;;6.70;;
7703;SDS011;3894;49.700;10.770;2023-09-12T11:59:28;13.27;;;6.20;;
7703;SDS011;3894;49.700;10.770;2023-09-12T12:01:54;14.35;;;6.20;;
7703;SDS011;3894;49.700;10.770;2023-09-12T12:04:21;10.57;;;6.75;;
7703;SDS011;3894;49.700;10.770;2023-09-12T12:06:48;8.80;;;6.32;;
7703;SDS011;3894;49.700;10.770;2023-09-12T12:09:15;12.48;;;7.20;;
7703;SDS011;3894;49.700;10.770;2023-09-12T12:11:44;11.60;;;6.57;;
7703;SDS011;3894;49.700;10.770;2023-09-12T12:14:14;9.77;;;5.78;;
7703;SDS011;3894;49.700;10.770;2023-09-12T12:16:41;10.07;;;6.35;;
7703;SDS011;3894;49.700;10.770;2023-09-12T12:19:08;11.27;;;6.15;;
7703;SDS011;3894;49.700;10.770;2023-09-12T12:21:43;10.38;;;6.35;;
7703;SDS011;3894;49.700;10.770;2023-09-12T12:24:13;11.63;;;6.65;;
7703;SDS011;3894;49.700;10.770;2023-09-12T12:26:45;9.82;;;6.53;;
7703;SDS011;3894;49.700;10.770;2023-09-12T12:29:11;9.13;;;6.03;;
7703;SDS011;3894;49.700;10.770;2023-09-12T12:31:38;10.98;;;6.65;;
7703;SDS011;3894;49.700;10.770;2023-09-12T12:34:04;11.38;;;6.18;;
7703;SDS011;3894;49.700;10.770;2023-09-12T12:36:31;11.60;;;6.18;;
7703;SDS011;3894;49.700;10.770;2023-09-12T12:38:59;9.27;;;6.18;;
7703;SDS011;3894;49.700;10.770;2023-09-12T12:41:29;9.57;;;7.00;;
7703;SDS011;3894;49.700;10.770;2023-09-12T12:44:01;10.23;;;6.88;;
7703;SDS011;3894;49.700;10.770;2023-09-12T12:46:28;10.20;;;6.45;;
7703;SDS011;3894;49.700;10.770;2023-09-12T12:48:54;10.50;;;6.50;;
7703;SDS011;3894;49.700;10.770;2023-09-12T12:51:21;12.75;;;7.00;;
7703;SDS011;3894;49.700;10.770;2023-09-12T12:53:51;9.98;;;5.90;;
7703;SDS011;3894;49.700;10.770;2023-09-12T12:56:19;10.55;;;6.70;;
7703;SDS011;3894;49.700;10.770;2023-09-12T12:58:49;11.85;;;6.07;;
7703;SDS011;3894;49.700;10.770;2023-09-12T13:01:16;11.52;;;6.82;;
7703;SDS011;3894;49.700;10.770;2023-09-12T13:03:42;11.90;;;6.65;;
7703;SDS011;3894;49.700;10.770;2023-09-12T13:06:08;8.93;;;5.47;;
7703;SDS011;3894;49.700;10.770;2023-09-12T13:08:38;9.93;;;5.63;;
7703;SDS011;3894;49.700;10.770;2023-09-12T13:11:06;11.10;;;6.10;;
7703;SDS011;3894;49.700;10.770;2023-09-12T13:13:32;9.80;;;6.63;;
7703;SDS011;3894;49.700;10.770;2023-09-12T13:15:57;11.70;;;5.90;;
7703;SDS011;3894;49.700;10.770;2023-09-12T13:18:23;8.00;;;5.78;;
7703;SDS011;3894;49.700;10.770;2023-09-12T13:20:50;10.00;;;5.57;;
7703;SDS011;3894;49.700;10.770;2023-09-12T13:23:15;11.23;;;5.97;;
7703;SDS011;3894;49.700;10.770;2023-09-12T13:25:41;12.07;;;7.00;;
7703;SDS011;3894;49.700;10.770;2023-09-12T13:28:06;10.90;;;6.25;;
7703;SDS011;3894;49.700;10.770;2023-09-12T13:30:33;10.60;;;5.65;;
7703;SDS011;3894;49.700;10.770;2023-09-12T13:32:58;9.65;;;6.55;;
7703;SDS011;3894;49.700;10.770;2023-09-12T13:35:24;11.48;;;7.03;;
7703;SDS011;3894;49.700;10.770;2023-09-12T13:37:49;10.27;;;6.03;;
7703;SDS011;3894;49.700;10.770;2023-09-12T13:40:15;10.38;;;5.95;;
7703;SDS011;3894;49.700;10.770;2023-09-12T13:42:40;9.25;;;6.25;;
7703;SDS011;3894;49.700;10.770;2023-09-12T13:45:06;10.10;;;5.97;;
7703;SDS011;3894;49.700;10.770;2023-09-12T13:47:33;12.60;;;6.38;;
7703;SDS011;3894;49.700;10.770;2023-09-12T13:49:58;10.20;;;5.68;;
7703;SDS011;3894;49.700;10.770;2023-09-12T13:52:25;10.30;;;5.43;;
7703;SDS011;3894;49.700;10.770;2023-09-12T13:54:55;10.30;;;6.13;;
7703;SDS011;3894;49.700;10.770;2023-09-12T13:57:21;9.35;;;6.22;;
7703;SDS011;3894;49.700;10.770;2023-09-12T13:59:46;8.55;;;5.40;;
7703;SDS011;3894;49.700;10.770;2023-09-12T14:02:12;9.48;;;5.18;;
7703;SDS011;3894;49.700;10.770;2023-09-12T14:04:38;11.48;;;6.10;;
7703;SDS011;3894;49.700;10.770;2023-09-12T14:07:05;11.77;;;6.55;;
7703;SDS011;3894;49.700;10.770;2023-09-12T14:09:30;9.02;;;6.18;;
7703;SDS011;3894;49.700;10.770;2023-09-12T14:11:56;9.88;;;6.28;;
7703;SDS011;3894;49.700;10.770;2023-09-12T14:14:21;9.70;;;5.95;;
7703;SDS011;3894;49.700;10.770;2023-09-12T14:16:47;9.88;;;6.18;;
7703;SDS011;3894;49.700;10.770;2023-09-12T14:19:12;11.07;;;6.00;;
7703;SDS011;3894;49.700;10.770;2023-09-12T14:21:38;10.07;;;5.95;;
7703;SDS011;3894;49.700;10.770;2023-09-12T14:24:04;9.75;;;5.55;;
7703;SDS011;3894;49.700;10.770;2023-09-12T14:26:30;8.48;;;5.93;;
7703;SDS011;3894;49.700;10.770;2023-09-12T14:28:56;9.27;;;5.13;;
7703;SDS011;3894;49.700;10.770;2023-09-12T14:31:22;8.05;;;5.32;;
7703;SDS011;3894;49.700;10.770;2023-09-12T14:33:48;10.90;;;6.03;;
7703;SDS011;3894;49.700;10.770;2023-09-12T14:36:17;9.57;;;5.68;;
7703;SDS011;3894;49.700;10.770;2023-09-12T14:38:43;8.93;;;6.07;;
7703;SDS011;3894;49.700;10.770;2023-09-12T14:41:11;10.85;;;5.03;;
7703;SDS011;3894;49.700;10.770;2023-09-12T14:43:38;8.77;;;5.80;;
7703;SDS011;3894;49.700;10.770;2023-09-12T14:46:03;11.85;;;6.50;;
7703;SDS011;3894;49.700;10.770;2023-09-12T14:48:30;10.25;;;5.50;;
7703;SDS011;3894;49.700;10.770;2023-09-12T14:50:58;8.60;;;5.57;;
7703;SDS011;3894;49.700;10.770;2023-09-12T14:53:26;9.75;;;5.50;;
7703;SDS011;3894;49.700;10.770;2023-09-12T14:55:52;7.50;;;5.30;;
7703;SDS011;3894;49.700;10.770;2023-09-12T14:58:18;9.90;;;6.55;;
7703;SDS011;3894;49.700;10.770;2023-09-12T15:00:44;9.80;;;6.00;;
7703;SDS011;3894;49.700;10.770;2023-09-12T15:03:09;9.32;;;5.68;;
7703;SDS011;3894;49.700;10.770;2023-09-12T15:05:35;9.80;;;6.28;;
7703;SDS011;3894;49.700;10.770;2023-09-12T15:08:00;10.40;;;6.00;;
7703;SDS011;3894;49.700;10.770;2023-09-12T15:10:26;10.05;;;5.65;;